METAR Data
IDs: Format: Raw Decoded Include TAF

Data at: 1532 UTC 03 Dec 2021

RJFT 031200Z VRB02KT 9999 FEW003 SCT050 BKN060 07/07 Q1017